ADDS METAR Data INFO
IDs: Format: Raw Decoded Include TAF

Data at: 0859 UTC 20 Oct 2017

KLBL 200856Z AUTO 17016KT 10SM FEW110 16/09 A2992 RMK AO2 SLP105 T01560094 58019
KLBL 200756Z AUTO 18015KT 10SM OVC110 17/09 A2995 RMK AO2 SLP114 T01670094
KLBL 200656Z AUTO 17017G22KT 10SM CLR 17/09 A2996 RMK AO2 SLP118 T01670089
KLBL 200556Z AUTO 17015KT 10SM CLR 17/08 A2998 RMK AO2 SLP128 T01670083 10211 20144 402780067 58006
KLBL 200456Z AUTO 17014KT 10SM CLR 16/08 A2999 RMK AO2 SLP138 T01560083
KLBL 200356Z AUTO 15011KT 10SM CLR 15/09 A3000 RMK AO2 SLP144 T01500089
KLBL 200256Z AUTO 16009KT 10SM CLR 15/09 A3000 RMK AO2 SLP144 T01500089
KLBL 200156Z AUTO 15010KT 10SM CLR 17/08 A2999 RMK AO2 SLP146 T01670083
KLBL 200056Z AUTO 16012KT 10SM CLR 18/07 A2998 RMK AO2 SLP142 T01830072
KLBL 192356Z AUTO 10SM CLR 21/06 RMK AO2 SLPNO 6//// T02110061 10278 20211 $
KLBL 192256Z AUTO 16015KT 10SM CLR 24/08 A2997 RMK AO2 SLP131 T02440083
KLBL 192156Z AUTO 17018G27KT 10SM CLR 26/07 A2997 RMK AO2 PK WND 16027/2154 SLP130 T02560067
KLBL 192056Z AUTO 16020G24KT 10SM CLR 27/05 A2997 RMK AO2 PK WND 17026/2045 SLP129 T02670050 56028
KLBL 191956Z AUTO 16019G23KT 10SM CLR 27/08 A2999 RMK AO2 SLP134 T02720078
KLBL 191856Z AUTO 16013KT 10SM CLR 26/09 A3002 RMK AO2 SLP145 T02610094
KLBL 191756Z AUTO 15011KT 10SM CLR 23/09 A3006 RMK AO2 SLP160 T02280094 10228 20067 58012
KLBL 191656Z AUTO 17011KT 10SM CLR 19/08 A3008 RMK AO2 SLP171 T01890078
KLBL 191556Z AUTO 13006KT 10SM CLR 16/09 A3009 RMK AO2 SLP176 T01610089
KLBL 191456Z AUTO 13004KT 10SM CLR 14/08 A3010 RMK AO2 SLP176 T01440083 53011
KLBL 191356Z AUTO 00000KT 8SM CLR 09/07 A3008 RMK AO2 SLP174 T00890067
KLBL 191256Z AUTO 00000KT 10SM CLR 07/05 A3006 RMK AO2 SLP169 T00670050
KLBL 191056Z AUTO 36003KT 10SM CLR 07/06 A3006 RMK AO2 SLP162 T00720061
KLBL 190956Z AUTO 00000KT 10SM CLR 09/07 A3005 RMK AO2 SLP154 T00940067
KLBL 190856Z AUTO 10SM CLR 07/05 RMK AO2 SLPNO T00720050 $
KLBL 190756Z AUTO 25004KT 10SM CLR 08/06 A3006 RMK AO2 SLP158 T00830061
KLBL 190656Z AUTO 27004KT 10SM CLR 10/07 A3007 RMK AO2 SLP161 T01000072
KLBL 190556Z AUTO 22004KT 10SM CLR 11/08 A3007 RMK AO2 SLP163 T01110078 10239 20106 402890033 50002
KLBL 190456Z AUTO 23004KT 10SM CLR 13/09 A3008 RMK AO2 SLP167 T01280089
KLBL 190256Z AUTO 13008KT 10SM CLR 17/09 A3006 RMK AO2 SLP166 T01670094 51012
KLBL 190156Z AUTO 11006KT 10SM CLR 18/09 A3006 RMK AO2 SLP171 T01830094
KLBL 190056Z AUTO 11008KT 10SM CLR 21/09 A3004 RMK AO2 SLP162 T02110089
KLBL 182356Z AUTO 08004KT 10SM CLR 24/04 A3003 RMK AO2 SLP154 T02390044 10289 20233 53008
KLBL 182256Z AUTO 14005KT 10SM CLR 26/08 A3001 RMK AO2 SLP147 T02560083
KLBL 182156Z AUTO 11005KT 10SM CLR 28/04 A3001 RMK AO2 SLP141 T02830044